createdAt,value
2022-08-25T00:01:51.960Z,18.23
2022-08-25T00:04:19.255Z,18.20
2022-08-25T00:06:48.559Z,18.19
2022-08-25T00:09:18.373Z,18.19
2022-08-25T00:11:45.226Z,18.15
2022-08-25T00:14:17.085Z,18.13
2022-08-25T00:16:44.127Z,18.15
2022-08-25T00:19:15.906Z,18.15
2022-08-25T00:21:45.174Z,18.17
2022-08-25T00:24:13.687Z,18.16
2022-08-25T00:26:43.585Z,18.18
2022-08-25T00:29:10.971Z,18.23
2022-08-25T00:31:38.647Z,18.24
2022-08-25T00:34:12.452Z,18.23
2022-08-25T00:36:39.297Z,18.20
2022-08-25T00:39:07.560Z,18.21
2022-08-25T00:41:35.425Z,18.18
2022-08-25T00:44:05.513Z,18.18
2022-08-25T00:46:38.822Z,18.20
2022-08-25T00:49:25.065Z,18.19
2022-08-25T00:52:13.258Z,18.12
2022-08-25T00:54:49.595Z,17.99
2022-08-25T00:57:22.114Z,17.90
2022-08-25T01:00:01.940Z,17.87
2022-08-25T01:02:28.540Z,17.93
2022-08-25T01:04:55.113Z,17.95
2022-08-25T01:07:24.013Z,17.97
2022-08-25T01:09:52.479Z,17.98
2022-08-25T01:12:19.198Z,17.97
2022-08-25T01:14:46.710Z,17.95
2022-08-25T01:17:14.659Z,17.94
2022-08-25T01:19:41.543Z,17.89
2022-08-25T01:22:08.564Z,17.88
2022-08-25T01:24:46.953Z,17.90
2022-08-25T01:27:14.165Z,17.86
2022-08-25T01:29:41.418Z,17.81
2022-08-25T01:32:12.103Z,17.74
2022-08-25T01:34:41.508Z,17.70
2022-08-25T01:37:13.379Z,17.64
2022-08-25T01:39:40.683Z,17.68
2022-08-25T01:42:07.235Z,17.66
2022-08-25T01:44:36.024Z,17.68
2022-08-25T01:47:04.654Z,17.67
2022-08-25T01:49:31.164Z,17.65
2022-08-25T01:52:11.297Z,17.59
2022-08-25T01:54:38.170Z,17.61
2022-08-25T01:57:04.921Z,17.65
2022-08-25T01:59:31.590Z,17.67
2022-08-25T02:01:59.842Z,17.68
2022-08-25T02:04:29.508Z,17.64
2022-08-25T02:06:56.234Z,17.62
2022-08-25T02:09:23.003Z,17.54
2022-08-25T02:11:49.522Z,17.52
2022-08-25T02:14:17.122Z,17.50
2022-08-25T02:16:48.862Z,17.50
2022-08-25T02:19:16.796Z,17.51
2022-08-25T02:21:43.967Z,17.46
2022-08-25T02:24:12.064Z,17.42
2022-08-25T02:26:39.013Z,17.39
2022-08-25T02:29:07.540Z,17.34
2022-08-25T02:31:34.859Z,17.24
2022-08-25T02:34:02.377Z,17.25
2022-08-25T02:36:30.717Z,17.18
2022-08-25T02:38:57.259Z,17.16
2022-08-25T02:41:31.630Z,17.14
2022-08-25T02:43:59.053Z,17.10
2022-08-25T02:46:25.737Z,17.10
2022-08-25T02:48:53.292Z,17.09
2022-08-25T02:51:22.473Z,17.08
2022-08-25T02:53:49.832Z,17.07
2022-08-25T02:56:18.283Z,17.05
2022-08-25T02:58:45.973Z,16.94
2022-08-25T03:01:14.066Z,16.90
2022-08-25T03:03:44.322Z,16.97
2022-08-25T03:06:13.835Z,16.97
2022-08-25T03:08:42.094Z,16.94
2022-08-25T03:11:09.265Z,16.97
2022-08-25T03:13:36.652Z,16.98
2022-08-25T03:16:04.925Z,16.95
2022-08-25T03:18:31.895Z,16.98
2022-08-25T03:20:59.227Z,17.00
2022-08-25T03:23:26.217Z,17.00
2022-08-25T03:26:15.128Z,17.04
2022-08-25T03:28:42.047Z,17.07
2022-08-25T03:31:09.323Z,17.04
2022-08-25T03:33:36.883Z,16.99
2022-08-25T03:36:04.124Z,16.98
2022-08-25T03:38:30.708Z,16.93
2022-08-25T03:40:57.582Z,16.94
2022-08-25T03:43:24.118Z,16.88
2022-08-25T03:45:50.867Z,16.85
2022-08-25T03:48:18.133Z,16.89
2022-08-25T03:50:52.065Z,16.90
2022-08-25T03:53:19.974Z,16.90
2022-08-25T03:55:46.754Z,16.87
2022-08-25T03:58:13.563Z,16.87
2022-08-25T04:00:40.878Z,16.86
2022-08-25T04:03:07.791Z,16.83
2022-08-25T04:05:35.303Z,16.82
2022-08-25T04:08:02.104Z,16.84
2022-08-25T04:10:29.586Z,16.80
2022-08-25T04:12:57.353Z,16.77
2022-08-25T04:15:24.940Z,16.74
2022-08-25T04:17:57.083Z,16.78
2022-08-25T04:20:23.615Z,16.77
2022-08-25T04:22:50.121Z,16.80
2022-08-25T04:25:16.886Z,16.75
2022-08-25T04:27:43.396Z,16.72
2022-08-25T04:30:10.871Z,16.81
2022-08-25T04:32:37.603Z,16.86
2022-08-25T04:35:05.369Z,16.91
2022-08-25T04:37:33.382Z,16.98
2022-08-25T04:40:00.159Z,17.04
2022-08-25T04:42:27.020Z,17.01
2022-08-25T04:44:54.634Z,17.01
2022-08-25T04:47:22.106Z,17.08
2022-08-25T04:49:48.669Z,17.15
2022-08-25T04:52:15.342Z,17.21
2022-08-25T04:54:42.518Z,17.28
2022-08-25T04:57:09.541Z,17.34
2022-08-25T04:59:36.124Z,17.31
2022-08-25T05:02:05.124Z,17.40
2022-08-25T05:04:35.916Z,17.41
2022-08-25T05:07:03.391Z,17.46
2022-08-25T05:09:32.392Z,17.51
2022-08-25T05:12:01.118Z,17.59
2022-08-25T05:14:28.743Z,17.67
2022-08-25T05:16:56.432Z,17.75
2022-08-25T05:19:26.396Z,17.82
2022-08-25T05:21:53.758Z,17.88
2022-08-25T05:24:21.058Z,17.96
2022-08-25T05:26:47.649Z,18.04
2022-08-25T05:29:14.490Z,18.11
2022-08-25T05:31:47.061Z,18.19
2022-08-25T05:34:18.386Z,18.28
2022-08-25T05:36:44.965Z,18.35
2022-08-25T05:39:11.540Z,18.43
2022-08-25T05:41:38.564Z,18.50
2022-08-25T05:44:05.151Z,18.56
2022-08-25T05:46:31.989Z,18.65
2022-08-25T05:48:59.168Z,18.74
2022-08-25T05:51:26.638Z,18.84
2022-08-25T05:53:53.381Z,18.94
2022-08-25T05:56:20.326Z,19.02
2022-08-25T05:58:47.613Z,19.11
2022-08-25T06:01:45.398Z,19.22
2022-08-25T06:04:13.608Z,19.31
2022-08-25T06:06:40.609Z,19.42
2022-08-25T06:09:09.464Z,19.51
2022-08-25T06:11:38.030Z,19.62
2022-08-25T06:14:04.781Z,19.72
2022-08-25T06:16:31.672Z,19.81
2022-08-25T06:18:58.482Z,19.92
2022-08-25T06:21:25.308Z,20.08
2022-08-25T06:23:52.818Z,20.20
2022-08-25T06:26:21.119Z,20.35
2022-08-25T06:28:49.019Z,20.47
2022-08-25T06:31:15.661Z,20.58
2022-08-25T06:33:42.430Z,20.70
2022-08-25T06:36:09.028Z,20.81
2022-08-25T06:38:36.160Z,20.97
2022-08-25T06:41:04.495Z,21.10
2022-08-25T06:43:33.135Z,21.20
2022-08-25T06:46:14.828Z,21.39
2022-08-25T06:48:41.466Z,21.47
2022-08-25T06:51:10.643Z,21.52
2022-08-25T06:53:41.014Z,21.63
2022-08-25T06:56:07.593Z,21.72
2022-08-25T06:58:34.325Z,21.80
2022-08-25T07:01:23.562Z,21.91
2022-08-25T07:03:57.342Z,21.99
2022-08-25T07:06:25.010Z,22.06
2022-08-25T07:08:51.597Z,22.17
2022-08-25T07:11:18.574Z,22.34
2022-08-25T07:13:45.888Z,22.39
2022-08-25T07:16:15.352Z,22.53
2022-08-25T07:18:44.155Z,22.59
2022-08-25T07:21:12.338Z,22.66
2022-08-25T07:23:40.067Z,22.85
2022-08-25T07:26:36.677Z,22.91
2022-08-25T07:29:08.065Z,23.01
2022-08-25T07:31:34.969Z,23.10
2022-08-25T07:34:20.254Z,23.20
2022-08-25T07:36:46.963Z,23.35
2022-08-25T07:39:13.507Z,23.44
2022-08-25T07:41:41.970Z,23.51
2022-08-25T07:44:10.542Z,23.59
2022-08-25T07:46:37.518Z,23.69
2022-08-25T07:49:04.948Z,23.81
2022-08-25T07:51:44.159Z,23.99
2022-08-25T07:54:34.129Z,24.15
2022-08-25T07:57:01.648Z,24.26
2022-08-25T07:59:28.291Z,24.35
2022-08-25T08:01:54.930Z,24.50
2022-08-25T08:04:22.341Z,24.61
2022-08-25T08:06:49.083Z,24.74
2022-08-25T08:09:16.270Z,24.83
2022-08-25T08:11:51.484Z,24.87
2022-08-25T08:14:21.362Z,25.02
2022-08-25T08:16:48.026Z,25.06
2022-08-25T08:19:15.587Z,25.19
2022-08-25T08:21:42.390Z,25.34
2022-08-25T08:24:24.865Z,25.33
2022-08-25T08:26:59.073Z,25.36
2022-08-25T08:29:26.905Z,25.46
2022-08-25T08:31:53.542Z,25.59
2022-08-25T08:34:24.947Z,25.72
2022-08-25T08:36:52.479Z,25.89
2022-08-25T08:39:19.145Z,26.05
2022-08-25T08:42:17.367Z,26.16
2022-08-25T08:44:47.056Z,26.37
2022-08-25T08:47:36.349Z,26.38
2022-08-25T08:50:12.185Z,26.50
2022-08-25T08:52:39.696Z,26.59
2022-08-25T08:55:13.928Z,26.58
2022-08-25T08:57:45.385Z,26.62
2022-08-25T09:00:13.262Z,26.70
2022-08-25T09:02:52.152Z,26.79
2022-08-25T09:05:20.935Z,26.96
2022-08-25T09:08:15.721Z,27.17
2022-08-25T09:11:18.875Z,27.23
2022-08-25T09:14:04.443Z,27.47
2022-08-25T09:16:56.021Z,27.69
2022-08-25T09:19:32.080Z,27.80
2022-08-25T09:22:33.982Z,27.96
2022-08-25T09:25:08.861Z,28.10
2022-08-25T09:27:46.906Z,28.18
2022-08-25T09:30:17.231Z,28.35
2022-08-25T09:32:52.593Z,28.45
2022-08-25T09:35:23.891Z,28.58
2022-08-25T09:38:00.650Z,28.67
2022-08-25T09:40:30.854Z,28.72
2022-08-25T09:42:59.639Z,28.66
2022-08-25T09:45:45.562Z,28.70
2022-08-25T09:48:22.633Z,28.75
2022-08-25T09:50:52.025Z,28.84
2022-08-25T09:53:21.853Z,28.90
2022-08-25T09:56:00.193Z,28.94
2022-08-25T09:58:27.519Z,29.08
2022-08-25T10:01:05.490Z,29.21
2022-08-25T10:03:36.668Z,29.43
2022-08-25T10:06:13.108Z,29.56
2022-08-25T10:08:55.585Z,29.72
2022-08-25T10:11:30.987Z,29.77
2022-08-25T10:14:14.165Z,29.87
2022-08-25T10:16:40.924Z,30.07
2022-08-25T10:19:27.446Z,30.23
2022-08-25T10:22:10.911Z,30.12
2022-08-25T10:24:41.091Z,30.09
2022-08-25T10:27:30.318Z,30.09
2022-08-25T10:29:57.028Z,30.24
2022-08-25T10:32:32.838Z,30.45
2022-08-25T10:35:09.310Z,30.62
2022-08-25T10:37:57.099Z,30.72
2022-08-25T10:40:51.762Z,30.95
2022-08-25T10:43:33.659Z,31.14
2022-08-25T10:46:29.549Z,31.28
2022-08-25T10:49:08.560Z,31.50
2022-08-25T10:51:50.936Z,31.65
2022-08-25T10:54:44.567Z,31.73
2022-08-25T10:57:40.937Z,31.86
2022-08-25T11:00:14.507Z,32.00
2022-08-25T11:02:42.428Z,32.16
2022-08-25T11:05:26.279Z,32.35
2022-08-25T11:08:37.670Z,32.49
2022-08-25T11:11:11.522Z,32.57
2022-08-25T11:14:06.388Z,32.38
2022-08-25T11:16:52.623Z,32.26
2022-08-25T11:19:26.881Z,32.39
2022-08-25T11:22:15.296Z,32.51
2022-08-25T11:25:04.510Z,32.72
2022-08-25T11:27:55.247Z,32.99
2022-08-25T11:30:22.510Z,33.01
2022-08-25T11:32:55.083Z,33.06
2022-08-25T11:35:49.342Z,33.00
2022-08-25T11:38:25.184Z,33.14
2022-08-25T11:41:11.257Z,33.34
2022-08-25T11:44:15.700Z,33.58
2022-08-25T11:46:42.071Z,33.75
2022-08-25T11:49:27.650Z,33.91
2022-08-25T11:51:55.606Z,34.04
2022-08-25T11:54:45.677Z,34.18
2022-08-25T11:57:26.346Z,34.35
2022-08-25T11:59:53.312Z,34.57
2022-08-25T12:02:36.488Z,34.71
2022-08-25T12:05:11.838Z,34.85
2022-08-25T12:07:47.405Z,34.86
2022-08-25T12:10:25.681Z,34.87
2022-08-25T12:13:01.931Z,34.94
2022-08-25T12:15:31.320Z,34.76
2022-08-25T12:18:10.170Z,34.94
2022-08-25T12:20:53.147Z,35.07
2022-08-25T12:23:34.571Z,35.23
2022-08-25T12:26:30.414Z,35.51
2022-08-25T12:29:08.263Z,35.63
2022-08-25T12:31:56.978Z,35.78
2022-08-25T12:34:31.599Z,35.70
2022-08-25T12:37:14.085Z,35.62
2022-08-25T12:39:51.143Z,35.73
2022-08-25T12:42:31.417Z,35.71
2022-08-25T12:45:08.810Z,35.92
2022-08-25T12:47:37.777Z,36.16
2022-08-25T12:50:43.787Z,36.49
2022-08-25T12:53:18.141Z,36.97
2022-08-25T12:55:50.019Z,37.37
2022-08-25T12:58:17.015Z,37.73
2022-08-25T13:01:17.587Z,37.95
2022-08-25T13:04:17.935Z,37.71
2022-08-25T13:06:59.711Z,37.67
2022-08-25T13:09:51.997Z,38.10
2022-08-25T13:12:29.877Z,38.61
2022-08-25T13:14:58.939Z,38.88
2022-08-25T13:17:29.074Z,39.33
2022-08-25T13:20:23.336Z,39.65
2022-08-25T13:22:57.438Z,39.87
2022-08-25T13:25:32.659Z,40.17
2022-08-25T13:28:06.453Z,40.57
2022-08-25T13:30:39.165Z,40.54
2022-08-25T13:33:21.809Z,40.33
2022-08-25T13:36:13.690Z,39.58
2022-08-25T13:38:41.042Z,39.41
2022-08-25T13:41:18.647Z,39.78
2022-08-25T13:43:45.516Z,40.17
2022-08-25T13:46:12.445Z,40.57
2022-08-25T13:48:49.291Z,40.51
2022-08-25T13:51:31.714Z,39.79
2022-08-25T13:54:05.816Z,38.80
2022-08-25T13:56:41.199Z,38.78
2022-08-25T13:59:25.747Z,39.16
2022-08-25T14:01:54.787Z,39.60
2022-08-25T14:04:26.866Z,39.84
2022-08-25T14:07:33.783Z,40.00
2022-08-25T14:10:06.640Z,40.33
2022-08-25T14:12:46.402Z,40.04
2022-08-25T14:15:21.952Z,39.67
2022-08-25T14:18:00.899Z,39.50
2022-08-25T14:20:29.700Z,39.36
2022-08-25T14:23:02.697Z,38.63
2022-08-25T14:25:30.662Z,38.75
2022-08-25T14:28:07.286Z,38.73
2022-08-25T14:30:39.382Z,39.07
2022-08-25T14:33:06.745Z,38.97
2022-08-25T14:35:33.948Z,39.04
2022-08-25T14:38:10.447Z,38.91
2022-08-25T14:40:38.627Z,39.46
2022-08-25T14:43:09.617Z,40.04
2022-08-25T14:45:40.449Z,40.15
2022-08-25T14:48:18.018Z,40.07
2022-08-25T14:50:45.310Z,40.33
2022-08-25T14:53:12.258Z,40.50
2022-08-25T14:55:38.915Z,40.09
2022-08-25T14:58:06.920Z,39.83
2022-08-25T15:00:37.420Z,40.11
2022-08-25T15:03:04.186Z,40.20
2022-08-25T15:05:31.900Z,39.77
2022-08-25T15:08:17.030Z,39.37
2022-08-25T15:10:44.221Z,39.96
2022-08-25T15:13:11.030Z,39.86
2022-08-25T15:15:52.167Z,40.28
2022-08-25T15:18:20.970Z,40.74
2022-08-25T15:20:50.007Z,40.74
2022-08-25T15:23:17.681Z,40.76
2022-08-25T15:25:46.221Z,41.06
2022-08-25T15:28:13.009Z,41.69
2022-08-25T15:30:45.969Z,41.37
2022-08-25T15:33:13.865Z,42.05
2022-08-25T15:35:41.101Z,42.05
2022-08-25T15:38:08.227Z,41.89
2022-08-25T15:40:37.525Z,42.01
2022-08-25T15:43:05.706Z,42.09
2022-08-25T15:45:35.826Z,42.61
2022-08-25T15:48:02.742Z,42.46
2022-08-25T15:50:30.015Z,42.04
2022-08-25T15:52:56.675Z,42.35
2022-08-25T15:55:23.499Z,41.41
2022-08-25T15:57:50.294Z,41.86
2022-08-25T16:00:18.368Z,41.65
2022-08-25T16:02:45.414Z,41.18
2022-08-25T16:05:13.784Z,41.13
2022-08-25T16:07:45.831Z,40.85
2022-08-25T16:10:13.672Z,40.37
2022-08-25T16:12:42.630Z,39.96
2022-08-25T16:15:12.125Z,39.94
2022-08-25T16:17:40.711Z,39.88
2022-08-25T16:20:12.578Z,39.16
2022-08-25T16:22:40.906Z,38.53
2022-08-25T16:25:07.876Z,38.49
2022-08-25T16:27:38.675Z,38.41
2022-08-25T16:30:07.111Z,37.90
2022-08-25T16:32:33.627Z,37.70
2022-08-25T16:35:00.645Z,37.21
2022-08-25T16:37:27.795Z,37.05
2022-08-25T16:39:56.591Z,36.70
2022-08-25T16:42:23.211Z,35.92
2022-08-25T16:44:49.765Z,35.55
2022-08-25T16:47:20.614Z,35.11
2022-08-25T16:49:51.954Z,34.96
2022-08-25T16:52:36.992Z,34.67
2022-08-25T16:55:13.096Z,34.60
2022-08-25T16:57:55.094Z,34.21
2022-08-25T17:00:28.328Z,34.17
2022-08-25T17:03:00.346Z,33.69
2022-08-25T17:05:29.160Z,33.53
2022-08-25T17:08:15.099Z,33.03
2022-08-25T17:10:43.608Z,32.91
2022-08-25T17:13:11.340Z,32.57
2022-08-25T17:15:43.345Z,32.36
2022-08-25T17:18:11.170Z,32.44
2022-08-25T17:20:38.328Z,32.22
2022-08-25T17:23:12.018Z,32.05
2022-08-25T17:25:42.996Z,31.72
2022-08-25T17:28:11.922Z,31.58
2022-08-25T17:30:39.325Z,31.26
2022-08-25T17:33:05.988Z,31.14
2022-08-25T17:35:37.637Z,30.89
2022-08-25T17:38:04.256Z,30.52
2022-08-25T17:40:33.575Z,30.57
2022-08-25T17:43:01.668Z,30.11
2022-08-25T17:45:28.236Z,30.13
2022-08-25T17:47:55.091Z,30.01
2022-08-25T17:50:22.183Z,29.74
2022-08-25T17:52:49.110Z,29.68
2022-08-25T17:55:15.662Z,29.50
2022-08-25T17:57:42.422Z,29.46
2022-08-25T18:00:12.022Z,29.31
2022-08-25T18:02:39.854Z,29.32
2022-08-25T18:05:07.062Z,29.11
2022-08-25T18:07:33.733Z,28.88
2022-08-25T18:10:00.526Z,28.73
2022-08-25T18:12:27.523Z,28.77
2022-08-25T18:14:54.311Z,28.82
2022-08-25T18:17:21.934Z,28.73
2022-08-25T18:19:49.633Z,28.31
2022-08-25T18:22:16.879Z,28.18
2022-08-25T18:24:44.476Z,28.13
2022-08-25T18:27:13.545Z,28.14
2022-08-25T18:29:41.354Z,28.20
2022-08-25T18:32:09.482Z,27.97
2022-08-25T18:34:39.046Z,27.60
2022-08-25T18:37:25.487Z,27.48
2022-08-25T18:40:10.508Z,27.51
2022-08-25T18:42:37.145Z,27.40
2022-08-25T18:45:07.206Z,27.28
2022-08-25T18:47:38.928Z,27.24
2022-08-25T18:50:06.099Z,27.16
2022-08-25T18:52:32.821Z,27.06
2022-08-25T18:55:00.299Z,26.79
2022-08-25T18:57:27.803Z,26.59
2022-08-25T18:59:55.550Z,26.62
2022-08-25T19:02:22.273Z,26.64
2022-08-25T19:04:52.624Z,26.55
2022-08-25T19:07:19.687Z,26.42
2022-08-25T19:09:46.375Z,26.39
2022-08-25T19:12:22.137Z,26.26
2022-08-25T19:14:49.592Z,26.17
2022-08-25T19:17:17.302Z,26.17
2022-08-25T19:19:44.167Z,25.97
2022-08-25T19:22:31.649Z,25.91
2022-08-25T19:24:58.402Z,25.93
2022-08-25T19:27:25.355Z,25.83
2022-08-25T19:29:52.403Z,25.90
2022-08-25T19:32:19.098Z,25.89
2022-08-25T19:34:47.375Z,25.86
2022-08-25T19:37:18.394Z,25.81
2022-08-25T19:39:52.957Z,25.67
2022-08-25T19:42:37.008Z,25.46
2022-08-25T19:45:08.532Z,25.45
2022-08-25T19:47:35.188Z,25.44
2022-08-25T19:50:01.840Z,25.46
2022-08-25T19:52:28.831Z,25.46
2022-08-25T19:54:55.760Z,25.33
2022-08-25T19:57:28.154Z,25.12
2022-08-25T20:00:13.920Z,25.16
2022-08-25T20:02:40.561Z,25.18
2022-08-25T20:05:08.200Z,25.17
2022-08-25T20:07:37.863Z,25.15
2022-08-25T20:10:08.854Z,25.09
2022-08-25T20:12:41.709Z,25.00
2022-08-25T20:15:10.041Z,25.06
2022-08-25T20:17:36.602Z,24.94
2022-08-25T20:20:10.755Z,24.69
2022-08-25T20:22:37.998Z,24.66
2022-08-25T20:25:15.171Z,24.65
2022-08-25T20:27:47.658Z,24.61
2022-08-25T20:30:22.246Z,24.51
2022-08-25T20:32:50.633Z,24.43
2022-08-25T20:35:18.658Z,24.39
2022-08-25T20:37:46.557Z,24.34
2022-08-25T20:40:15.800Z,24.34
2022-08-25T20:42:44.407Z,24.29
2022-08-25T20:45:13.041Z,24.18
2022-08-25T20:47:39.613Z,24.24
2022-08-25T20:50:07.403Z,24.12
2022-08-25T20:52:34.870Z,24.06
2022-08-25T20:55:01.505Z,24.06
2022-08-25T20:57:28.107Z,23.88
2022-08-25T20:59:57.034Z,23.86
2022-08-25T21:02:24.825Z,23.91
2022-08-25T21:04:52.245Z,23.85
2022-08-25T21:07:20.298Z,23.71
2022-08-25T21:09:47.564Z,23.76
2022-08-25T21:12:14.835Z,23.77
2022-08-25T21:14:41.856Z,23.59
2022-08-25T21:17:12.072Z,23.41
2022-08-25T21:19:40.108Z,23.42
2022-08-25T21:22:08.967Z,23.37
2022-08-25T21:24:37.655Z,23.38
2022-08-25T21:27:04.637Z,23.33
2022-08-25T21:29:32.833Z,23.33
2022-08-25T21:31:59.674Z,23.25
2022-08-25T21:34:28.834Z,23.25
2022-08-25T21:36:57.890Z,23.24
2022-08-25T21:39:32.098Z,23.22
2022-08-25T21:42:01.227Z,23.17
2022-08-25T21:44:28.722Z,23.13
2022-08-25T21:46:56.122Z,23.02
2022-08-25T21:49:24.720Z,23.04
2022-08-25T21:52:00.058Z,23.07
2022-08-25T21:54:28.792Z,23.06
2022-08-25T21:57:02.614Z,23.10
2022-08-25T21:59:32.495Z,23.04
2022-08-25T22:02:05.040Z,23.05
2022-08-25T22:04:32.357Z,23.02
2022-08-25T22:06:59.307Z,23.02
2022-08-25T22:09:26.547Z,22.92
2022-08-25T22:11:55.664Z,22.91
2022-08-25T22:14:23.851Z,22.93
2022-08-25T22:16:53.190Z,22.88
2022-08-25T22:19:21.497Z,22.89
2022-08-25T22:21:50.155Z,22.89
2022-08-25T22:24:17.652Z,22.90
2022-08-25T22:26:47.458Z,22.93
2022-08-25T22:29:14.542Z,22.92
2022-08-25T22:31:52.927Z,22.81
2022-08-25T22:34:19.771Z,22.84
2022-08-25T22:36:59.696Z,22.76
2022-08-25T22:39:27.018Z,22.61
2022-08-25T22:41:53.902Z,22.49
2022-08-25T22:44:20.454Z,22.47
2022-08-25T22:46:46.998Z,22.46
2022-08-25T22:49:13.816Z,22.43
2022-08-25T22:51:40.959Z,22.32
2022-08-25T22:54:09.592Z,22.29
2022-08-25T22:56:38.882Z,22.20
2022-08-25T22:59:09.458Z,22.21
2022-08-25T23:01:36.766Z,22.16
2022-08-25T23:04:04.975Z,22.12
2022-08-25T23:06:32.102Z,22.08
2022-08-25T23:08:58.773Z,22.05
2022-08-25T23:11:25.730Z,22.04
2022-08-25T23:13:57.509Z,21.99
2022-08-25T23:16:25.169Z,21.94
2022-08-25T23:18:52.970Z,21.84
2022-08-25T23:21:41.341Z,21.72
2022-08-25T23:24:11.161Z,21.60
2022-08-25T23:26:42.496Z,21.57
2022-08-25T23:29:17.925Z,21.52
2022-08-25T23:31:47.146Z,21.46
2022-08-25T23:34:16.032Z,21.45
2022-08-25T23:36:43.425Z,21.38
2022-08-25T23:39:11.083Z,21.26
2022-08-25T23:41:40.008Z,21.23
2022-08-25T23:44:06.693Z,21.13
2022-08-25T23:46:36.174Z,20.89
2022-08-25T23:49:04.906Z,20.85
2022-08-25T23:51:34.606Z,20.78
2022-08-25T23:54:09.322Z,20.74
2022-08-25T23:56:42.494Z,20.74
2022-08-25T23:59:12.999Z,20.76
